createdAt,value
2023-02-24T00:00:02.136Z,640.3
2023-02-24T00:01:04.340Z,640.3
2023-02-24T00:02:07.539Z,640.1
2023-02-24T00:03:10.245Z,640.4
2023-02-24T00:04:12.747Z,640.5
2023-02-24T00:05:15.245Z,640.5
2023-02-24T00:06:17.497Z,640.4
2023-02-24T00:07:20.090Z,640.4
2023-02-24T00:08:22.616Z,640.6
2023-02-24T00:09:25.129Z,640.5
2023-02-24T00:10:27.358Z,640.7
2023-02-24T00:11:29.992Z,640.9
2023-02-24T00:12:31.923Z,640.6
2023-02-24T00:13:34.438Z,640.9
2023-02-24T00:14:36.736Z,640.8
2023-02-24T00:15:39.393Z,641.3
2023-02-24T00:16:42.313Z,640.9
2023-02-24T00:17:44.862Z,641.5
2023-02-24T00:18:47.124Z,641.3
2023-02-24T00:19:49.342Z,641.2
2023-02-24T00:20:51.824Z,641.5
2023-02-24T00:21:54.351Z,641.8
2023-02-24T00:22:56.951Z,641.8
2023-02-24T00:23:59.471Z,641.7
2023-02-24T00:25:01.440Z,641.7
2023-02-24T00:26:03.678Z,641.9
2023-02-24T00:27:05.896Z,641.9
2023-02-24T00:28:08.399Z,641.9
2023-02-24T00:29:10.969Z,641.8
2023-02-24T00:30:13.241Z,642
2023-02-24T00:31:16.540Z,641.9
2023-02-24T00:32:20.249Z,641.9
2023-02-24T00:33:22.819Z,641.5
2023-02-24T00:34:25.326Z,641.6
2023-02-24T00:35:27.823Z,641.7
2023-02-24T00:36:30.315Z,641.6
2023-02-24T00:37:32.824Z,641.9
2023-02-24T00:38:35.446Z,641.9
2023-02-24T00:39:37.996Z,642.1
2023-02-24T00:40:40.506Z,641.6
2023-02-24T00:41:43.029Z,642
2023-02-24T00:42:45.555Z,642.1
2023-02-24T00:43:48.071Z,642.1
2023-02-24T00:44:50.600Z,642
2023-02-24T00:45:53.244Z,641.4
2023-02-24T00:46:55.513Z,642
2023-02-24T00:47:58.054Z,642.3
2023-02-24T00:49:00.580Z,641.7
2023-02-24T00:50:02.884Z,642
2023-02-24T00:51:05.106Z,642
2023-02-24T00:52:07.630Z,642.5
2023-02-24T00:53:09.886Z,642.7
2023-02-24T00:54:12.493Z,642.6
2023-02-24T00:55:15.109Z,642.6
2023-02-24T00:56:17.648Z,643
2023-02-24T00:57:19.765Z,642.8
2023-02-24T00:58:22.276Z,642.9
2023-02-24T00:59:24.767Z,643.3
2023-02-24T01:00:27.394Z,643.6
2023-02-24T01:01:30.156Z,643.3
2023-02-24T01:02:32.390Z,643.4
2023-02-24T01:03:34.860Z,643.5
2023-02-24T01:04:37.457Z,643.2
2023-02-24T01:05:40.094Z,643.8
2023-02-24T01:06:42.598Z,643.9
2023-02-24T01:07:45.096Z,644.1
2023-02-24T01:08:47.632Z,643.9
2023-02-24T01:09:49.960Z,644
2023-02-24T01:10:52.176Z,644
2023-02-24T01:11:54.957Z,643.9
2023-02-24T01:12:56.993Z,644.4
2023-02-24T01:13:59.523Z,644.3
2023-02-24T01:15:02.046Z,644.3
2023-02-24T01:16:04.991Z,644.2
2023-02-24T01:17:07.212Z,644.8
2023-02-24T01:18:09.724Z,644.7
2023-02-24T01:19:11.959Z,644.9
2023-02-24T01:20:14.462Z,645.2
2023-02-24T01:21:16.962Z,645.9
2023-02-24T01:22:19.203Z,645.1
2023-02-24T01:23:21.693Z,645.8
2023-02-24T01:24:23.672Z,645.9
2023-02-24T01:25:26.273Z,646
2023-02-24T01:26:28.506Z,646.1
2023-02-24T01:27:31.033Z,645.6
2023-02-24T01:28:33.523Z,645.6
2023-02-24T01:29:36.027Z,646.3
2023-02-24T01:30:38.246Z,645.4
2023-02-24T01:31:41.961Z,646.2
2023-02-24T01:32:45.677Z,645.4
2023-02-24T01:33:48.294Z,645.8
2023-02-24T01:34:50.824Z,646.2
2023-02-24T01:35:53.080Z,646.8
2023-02-24T01:36:55.644Z,646
2023-02-24T01:37:57.923Z,645.9
2023-02-24T01:39:00.458Z,646.4
2023-02-24T01:40:02.945Z,646.2
2023-02-24T01:41:05.538Z,646.5
2023-02-24T01:42:07.307Z,646.6
2023-02-24T01:43:09.794Z,646.4
2023-02-24T01:44:12.294Z,646.5
2023-02-24T01:45:14.894Z,645.8
2023-02-24T01:46:17.032Z,646.3
2023-02-24T01:47:19.809Z,646.5
2023-02-24T01:48:22.305Z,646.8
2023-02-24T01:49:24.798Z,646.8
2023-02-24T01:50:27.399Z,647.5
2023-02-24T01:51:29.889Z,647.6
2023-02-24T01:52:32.719Z,647.8
2023-02-24T01:53:34.932Z,647.9
2023-02-24T01:54:37.424Z,648.3
2023-02-24T01:55:39.679Z,648.2
2023-02-24T01:56:42.277Z,648.5
2023-02-24T01:57:44.240Z,648.8
2023-02-24T01:58:46.447Z,648.9
2023-02-24T01:59:48.645Z,649
2023-02-24T02:00:50.855Z,649.1
2023-02-24T02:01:54.119Z,649.2
2023-02-24T02:02:56.890Z,649.3
2023-02-24T02:03:59.148Z,649.4
2023-02-24T02:05:01.709Z,649.2
2023-02-24T02:06:03.940Z,649.6
2023-02-24T02:07:06.444Z,649.4
2023-02-24T02:08:08.935Z,649.6
2023-02-24T02:09:11.157Z,649.7
2023-02-24T02:10:13.735Z,649.5
2023-02-24T02:11:16.270Z,649.8
2023-02-24T02:12:18.931Z,649.9
2023-02-24T02:13:21.967Z,650.2
2023-02-24T02:14:24.213Z,649.9
2023-02-24T02:15:26.744Z,649.7
2023-02-24T02:16:29.695Z,650
2023-02-24T02:17:32.217Z,649.9
2023-02-24T02:18:34.451Z,649.9
2023-02-24T02:19:36.667Z,649.9
2023-02-24T02:20:38.916Z,650
2023-02-24T02:21:40.844Z,649.8
2023-02-24T02:22:43.340Z,650
2023-02-24T02:23:45.859Z,650.1
2023-02-24T02:24:48.074Z,650.1
2023-02-24T02:25:50.574Z,649.8
2023-02-24T02:26:53.095Z,650.2
2023-02-24T02:27:55.681Z,649.8
2023-02-24T02:28:57.922Z,650.4
2023-02-24T02:30:00.173Z,650.6
2023-02-24T02:31:03.592Z,650.4
2023-02-24T02:32:06.591Z,650.5
2023-02-24T02:33:09.105Z,650.8
2023-02-24T02:34:11.716Z,650.5
2023-02-24T02:35:13.986Z,650.3
2023-02-24T02:36:16.526Z,650.5
2023-02-24T02:37:19.067Z,650.5
2023-02-24T02:38:21.589Z,650.6
2023-02-24T02:39:24.089Z,650.7
2023-02-24T02:40:26.310Z,650.4
2023-02-24T02:41:28.249Z,650.4
2023-02-24T02:42:29.961Z,650.6
2023-02-24T02:43:32.302Z,650.7
2023-02-24T02:44:34.811Z,650.7
2023-02-24T02:45:37.282Z,650.6
2023-02-24T02:46:39.818Z,650.8
2023-02-24T02:47:42.347Z,650.9
2023-02-24T02:48:44.639Z,650.6
2023-02-24T02:49:47.176Z,650.2
2023-02-24T02:50:49.681Z,650.4
2023-02-24T02:51:52.145Z,650.5
2023-02-24T02:52:54.634Z,650.7
2023-02-24T02:53:57.165Z,651.3
2023-02-24T02:54:59.408Z,651.3
2023-02-24T02:56:01.632Z,651.3
2023-02-24T02:57:04.168Z,651.4
2023-02-24T02:58:06.670Z,650.9
2023-02-24T02:59:09.260Z,650.8
2023-02-24T03:00:11.516Z,650.6
2023-02-24T03:01:13.893Z,650.4
2023-02-24T03:02:16.579Z,650.4
2023-02-24T03:03:18.561Z,650.4
2023-02-24T03:04:21.218Z,650.4
2023-02-24T03:05:23.784Z,650.3
2023-02-24T03:06:25.997Z,650.5
2023-02-24T03:07:28.487Z,650.5
2023-02-24T03:08:31.010Z,650.5
2023-02-24T03:09:33.248Z,651.2
2023-02-24T03:10:35.897Z,651.1
2023-02-24T03:11:38.137Z,651.6
2023-02-24T03:12:40.635Z,651.6
2023-02-24T03:13:43.144Z,651.3
2023-02-24T03:14:45.184Z,651.3
2023-02-24T03:15:47.757Z,651.6
2023-02-24T03:16:50.444Z,651.8
2023-02-24T03:17:52.654Z,651.4
2023-02-24T03:18:55.136Z,651.7
2023-02-24T03:19:57.644Z,651.8
2023-02-24T03:20:59.885Z,651.4
2023-02-24T03:22:02.446Z,651.5
2023-02-24T03:23:04.947Z,651.3
2023-02-24T03:24:07.200Z,651.4
2023-02-24T03:25:09.434Z,651.6
2023-02-24T03:26:11.937Z,651.6
2023-02-24T03:27:14.445Z,651.6
2023-02-24T03:28:16.680Z,651.3
2023-02-24T03:29:18.947Z,651.8
2023-02-24T03:30:21.531Z,651.9
2023-02-24T03:31:26.602Z,651.8
2023-02-24T03:32:29.448Z,652
2023-02-24T03:33:31.753Z,651.8
2023-02-24T03:34:33.971Z,651.5
2023-02-24T03:35:36.190Z,651.8
2023-02-24T03:36:38.721Z,652.2
2023-02-24T03:37:41.243Z,652.3
2023-02-24T03:38:43.773Z,652.3
2023-02-24T03:39:46.258Z,652.3
2023-02-24T03:40:48.763Z,652.5
2023-02-24T03:41:51.460Z,652.2
2023-02-24T03:42:54.088Z,652.1
2023-02-24T03:43:56.591Z,652.2
2023-02-24T03:44:59.116Z,652
2023-02-24T03:46:02.176Z,651.8
2023-02-24T03:47:04.495Z,652
2023-02-24T03:48:06.985Z,652.1
2023-02-24T03:49:09.542Z,652.1
2023-02-24T03:50:12.050Z,652.3
2023-02-24T03:51:14.539Z,652.3
2023-02-24T03:52:17.671Z,652.7
2023-02-24T03:53:20.176Z,652.4
2023-02-24T03:54:22.681Z,652.1
2023-02-24T03:55:25.214Z,652.5
2023-02-24T03:56:27.700Z,652
2023-02-24T03:57:30.224Z,652.9
2023-02-24T03:58:32.752Z,652.6
2023-02-24T03:59:35.290Z,652.7
2023-02-24T04:00:37.797Z,653
2023-02-24T04:01:40.403Z,653
2023-02-24T04:02:43.163Z,653
2023-02-24T04:03:45.411Z,653.8
2023-02-24T04:04:48.010Z,653.8
2023-02-24T04:05:50.559Z,653.7
2023-02-24T04:07:59.092Z,654.1
2023-02-24T04:09:01.630Z,654
2023-02-24T04:10:03.868Z,654.1
2023-02-24T04:11:06.505Z,654.4
2023-02-24T04:12:08.987Z,654.2
2023-02-24T04:13:11.495Z,654.1
2023-02-24T04:14:14.023Z,654.2
2023-02-24T04:15:16.550Z,654.5
2023-02-24T04:16:19.174Z,654.4
2023-02-24T04:17:21.818Z,653.9
2023-02-24T04:18:24.109Z,654.3
2023-02-24T04:19:26.358Z,654.7
2023-02-24T04:20:28.559Z,654.5
2023-02-24T04:21:31.064Z,654.6
2023-02-24T04:22:33.434Z,654.5
2023-02-24T04:23:35.979Z,654.6
2023-02-24T04:24:38.188Z,654.8
2023-02-24T04:25:40.708Z,654.6
2023-02-24T04:26:42.944Z,654.7
2023-02-24T04:27:44.918Z,655.2
2023-02-24T04:28:47.410Z,654.6
2023-02-24T04:29:49.902Z,654.7
2023-02-24T04:30:52.797Z,654.9
2023-02-24T04:31:56.705Z,655.2
2023-02-24T04:32:59.913Z,655
2023-02-24T04:34:02.573Z,655.2
2023-02-24T04:35:04.944Z,655.5
2023-02-24T04:36:07.483Z,655.6
2023-02-24T04:37:09.697Z,655.5
2023-02-24T04:38:12.196Z,655.6
2023-02-24T04:39:14.751Z,656
2023-02-24T04:40:16.979Z,655.9
2023-02-24T04:41:21.733Z,655.9
2023-02-24T04:42:24.470Z,656.2
2023-02-24T04:43:26.969Z,656.2
2023-02-24T04:44:29.181Z,656.7
2023-02-24T04:45:31.921Z,656.7
2023-02-24T04:46:34.431Z,657.2
2023-02-24T04:47:37.054Z,657.1
2023-02-24T04:48:39.704Z,657.1
2023-02-24T04:49:42.225Z,657.2
2023-02-24T04:50:44.506Z,657.3
2023-02-24T04:51:47.028Z,658.2
2023-02-24T04:52:49.533Z,658.2
2023-02-24T04:53:52.032Z,658
2023-02-24T04:54:54.293Z,658.2
2023-02-24T04:55:56.597Z,658.4
2023-02-24T04:57:00.932Z,658.6
2023-02-24T04:58:03.173Z,658.6
2023-02-24T04:59:05.384Z,658.7
2023-02-24T05:00:07.893Z,658.6
2023-02-24T05:01:10.402Z,658.9
2023-02-24T05:02:12.938Z,659
2023-02-24T05:03:15.446Z,658.7
2023-02-24T05:04:18.286Z,659.2
2023-02-24T05:05:20.574Z,659
2023-02-24T05:06:22.808Z,659
2023-02-24T05:07:25.322Z,659.1
2023-02-24T05:08:27.932Z,659.7
2023-02-24T05:09:30.507Z,659.4
2023-02-24T05:10:32.713Z,659.7
2023-02-24T05:11:34.993Z,659.8
2023-02-24T05:12:37.501Z,660.1
2023-02-24T05:13:39.434Z,660.3
2023-02-24T05:14:41.644Z,660.5
2023-02-24T05:15:43.893Z,660.5
2023-02-24T05:16:46.392Z,661.2
2023-02-24T05:17:48.903Z,660.9
2023-02-24T05:18:51.140Z,661.5
2023-02-24T05:19:53.738Z,661.3
2023-02-24T05:20:56.333Z,661.3
2023-02-24T05:21:58.836Z,661.4
2023-02-24T05:23:01.352Z,661.8
2023-02-24T05:24:03.985Z,661.8
2023-02-24T05:25:06.478Z,661.5
2023-02-24T05:26:09.156Z,661.6
2023-02-24T05:27:11.648Z,662.1
2023-02-24T05:28:14.172Z,661.7
2023-02-24T05:29:16.740Z,661.9
2023-02-24T05:30:18.701Z,662
2023-02-24T05:31:24.112Z,661.9
2023-02-24T05:32:27.478Z,661.8
2023-02-24T05:33:29.863Z,661.7
2023-02-24T05:34:32.402Z,662.3
2023-02-24T05:35:34.977Z,662.2
2023-02-24T05:36:37.563Z,662.3
2023-02-24T05:37:40.210Z,662.7
2023-02-24T05:38:42.723Z,662.3
2023-02-24T05:39:45.248Z,662.6
2023-02-24T05:40:47.745Z,662.6
2023-02-24T05:41:50.282Z,662.6
2023-02-24T05:42:52.775Z,662.9
2023-02-24T05:43:55.310Z,662.6
2023-02-24T05:44:57.821Z,662.9
2023-02-24T05:46:00.112Z,662.6
2023-02-24T05:47:02.818Z,663.2
2023-02-24T05:48:05.332Z,662.6
2023-02-24T05:49:07.845Z,662.4
2023-02-24T05:50:10.348Z,662.7
2023-02-24T05:51:12.954Z,662.5
2023-02-24T05:52:15.478Z,662.7
2023-02-24T05:53:17.696Z,662.8
2023-02-24T05:54:20.228Z,663
2023-02-24T05:55:22.718Z,662.8
2023-02-24T05:56:24.972Z,662.9
2023-02-24T05:57:27.529Z,662.6
2023-02-24T05:58:29.757Z,662.8
2023-02-24T05:59:32.259Z,663.2
2023-02-24T06:00:34.781Z,662.9
2023-02-24T06:01:37.608Z,662.9
2023-02-24T06:02:40.451Z,663
2023-02-24T06:03:42.733Z,663.3
2023-02-24T06:04:45.228Z,663.3
2023-02-24T06:05:47.738Z,663.5
2023-02-24T06:06:50.030Z,663.4
2023-02-24T06:07:52.711Z,663.6
2023-02-24T06:08:54.649Z,663.4
2023-02-24T06:09:57.369Z,663.3
2023-02-24T06:10:59.631Z,663.4
2023-02-24T06:12:01.986Z,663.5
2023-02-24T06:13:04.633Z,663.1
2023-02-24T06:14:06.856Z,663.2
2023-02-24T06:15:09.894Z,663.3
2023-02-24T06:16:12.690Z,663.4
2023-02-24T06:17:15.278Z,663.2
2023-02-24T06:18:17.817Z,663
2023-02-24T06:19:20.054Z,663.1
2023-02-24T06:20:22.331Z,663.2
2023-02-24T06:21:25.146Z,663.3
2023-02-24T06:22:27.750Z,663.4
2023-02-24T06:23:30.022Z,663.1
2023-02-24T06:24:32.243Z,663.3
2023-02-24T06:25:34.518Z,663.1
2023-02-24T06:26:37.064Z,662.9
2023-02-24T06:27:39.023Z,663.1
2023-02-24T06:28:41.592Z,663.2
2023-02-24T06:29:44.091Z,663.2
2023-02-24T06:30:46.741Z,662.7
2023-02-24T06:31:49.514Z,663.1
2023-02-24T06:32:52.362Z,663.1
2023-02-24T06:33:54.681Z,662.8
2023-02-24T06:34:56.912Z,663
2023-02-24T06:35:59.467Z,662.6
2023-02-24T06:37:01.994Z,662.8
2023-02-24T06:38:04.622Z,662.9
2023-02-24T06:39:06.855Z,662.4
2023-02-24T06:40:08.820Z,662.4
2023-02-24T06:41:11.550Z,662.4
2023-02-24T06:42:13.563Z,662.4
2023-02-24T06:43:16.135Z,662.3
2023-02-24T06:44:18.399Z,662.3
2023-02-24T06:45:20.689Z,662.4
2023-02-24T06:46:23.494Z,662.4
2023-02-24T06:47:26.041Z,662
2023-02-24T06:48:28.318Z,661.9
2023-02-24T06:49:30.844Z,662.1
2023-02-24T06:50:33.356Z,661.7
2023-02-24T06:51:35.605Z,661.6
2023-02-24T06:52:37.845Z,661.7
2023-02-24T06:53:40.450Z,661.8
2023-02-24T06:54:42.742Z,661.8
2023-02-24T06:55:45.236Z,661.9
2023-02-24T06:56:47.498Z,661.7
2023-02-24T06:57:50.010Z,661.9
2023-02-24T06:58:52.609Z,661.7
2023-02-24T06:59:54.927Z,661.5
2023-02-24T07:00:57.823Z,661.5
2023-02-24T07:01:59.796Z,661.4
2023-02-24T07:03:02.052Z,661.7
2023-02-24T07:04:05.029Z,662.1
2023-02-24T07:05:07.335Z,661.5
2023-02-24T07:06:09.601Z,662.1
2023-02-24T07:07:11.341Z,661.5
2023-02-24T07:08:13.847Z,661.8
2023-02-24T07:09:16.485Z,661.9
2023-02-24T07:10:18.728Z,661.6
2023-02-24T07:11:22.951Z,662.1
2023-02-24T07:12:25.664Z,661.9
2023-02-24T07:13:27.893Z,662.2
2023-02-24T07:14:30.403Z,662.1
2023-02-24T07:15:32.968Z,662.3
2023-02-24T07:16:35.924Z,662
2023-02-24T07:17:38.185Z,662.4
2023-02-24T07:18:40.428Z,662.3
2023-02-24T07:19:42.940Z,662.6
2023-02-24T07:20:45.437Z,662.9
2023-02-24T07:21:47.661Z,662.8
2023-02-24T07:22:50.188Z,662.8
2023-02-24T07:23:52.455Z,663.1
2023-02-24T07:24:55.074Z,663.3
2023-02-24T07:25:57.651Z,663.4
2023-02-24T07:27:00.210Z,663.2
2023-02-24T07:28:02.759Z,663.3
2023-02-24T07:29:05.297Z,663.4
2023-02-24T07:30:07.825Z,663.7
2023-02-24T07:31:10.958Z,663.7
2023-02-24T07:32:14.425Z,663.6
2023-02-24T07:33:16.750Z,663.5
2023-02-24T07:34:18.989Z,663.8
2023-02-24T07:35:20.955Z,663.6
2023-02-24T07:36:23.514Z,663.6
2023-02-24T07:37:25.795Z,664.2
2023-02-24T07:38:28.294Z,664.4
2023-02-24T07:39:30.536Z,664.1
2023-02-24T07:40:33.125Z,663.9
2023-02-24T07:41:35.655Z,664
2023-02-24T07:42:37.611Z,664
2023-02-24T07:43:39.879Z,664.2
2023-02-24T07:44:42.098Z,664
2023-02-24T07:45:44.916Z,664.6
2023-02-24T07:46:47.192Z,664.6
2023-02-24T07:47:49.502Z,664.6
2023-02-24T07:48:52.042Z,664.6
2023-02-24T07:49:54.556Z,664.7
2023-02-24T07:50:57.059Z,664.7
2023-02-24T07:51:59.516Z,664.6
2023-02-24T07:53:02.019Z,664.7
2023-02-24T07:54:04.610Z,664.8
2023-02-24T07:55:06.895Z,664.6
2023-02-24T07:56:09.691Z,664.5
2023-02-24T07:57:12.212Z,664.5
2023-02-24T07:58:14.723Z,664.4
2023-02-24T07:59:16.729Z,664.3
2023-02-24T08:00:18.985Z,664.5
2023-02-24T08:01:23.532Z,664.8
2023-02-24T08:02:26.174Z,664.7
2023-02-24T08:03:28.440Z,664.8
2023-02-24T08:04:31.321Z,665.1
2023-02-24T08:05:33.338Z,665.1
2023-02-24T08:06:35.574Z,665.2
2023-02-24T08:07:38.149Z,665.7
2023-02-24T08:08:40.661Z,665.7
2023-02-24T08:09:42.636Z,665.3
2023-02-24T08:10:44.577Z,665.3
2023-02-24T08:11:47.220Z,665.7
2023-02-24T08:12:49.468Z,666.1
2023-02-24T08:13:51.726Z,666.2
2023-02-24T08:14:54.403Z,666.6
2023-02-24T08:15:57.251Z,666.6
2023-02-24T08:16:59.245Z,666.7
2023-02-24T08:18:01.989Z,666.5
2023-02-24T08:19:04.265Z,666.6
2023-02-24T08:20:06.494Z,666.6
2023-02-24T08:21:09.340Z,666.6
2023-02-24T08:22:11.836Z,666.8
2023-02-24T08:23:13.799Z,666.9
2023-02-24T08:24:16.041Z,666.9
2023-02-24T08:25:19.300Z,667.1
2023-02-24T08:26:22.038Z,667.7
2023-02-24T08:27:24.389Z,667.5
2023-02-24T08:28:26.627Z,667.5
2023-02-24T08:29:29.147Z,667.8
2023-02-24T08:30:32.089Z,667.5
2023-02-24T08:31:35.854Z,667.9
2023-02-24T08:32:39.351Z,667.7
2023-02-24T08:33:41.910Z,667.4
2023-02-24T08:34:44.416Z,667.9
2023-02-24T08:35:46.984Z,667.5
2023-02-24T08:36:48.938Z,667.8
2023-02-24T08:37:50.921Z,668.1
2023-02-24T08:38:53.824Z,668.1
2023-02-24T08:39:56.353Z,667.7
2023-02-24T08:40:58.874Z,668.4
2023-02-24T08:42:00.814Z,668.3
2023-02-24T08:43:03.179Z,668.5
2023-02-24T08:44:05.407Z,669
2023-02-24T08:45:07.652Z,669.2
2023-02-24T08:46:10.394Z,669.1
2023-02-24T08:47:12.928Z,669.3
2023-02-24T08:48:15.194Z,669.8
2023-02-24T08:49:17.720Z,669.9
2023-02-24T08:50:19.968Z,669.9
2023-02-24T08:51:24.626Z,670
2023-02-24T08:52:27.198Z,669.8
2023-02-24T08:53:28.915Z,669.8
2023-02-24T08:54:31.483Z,669.6
2023-02-24T08:55:34.063Z,669.9
2023-02-24T08:56:36.814Z,669.8
2023-02-24T08:57:39.082Z,669.7
2023-02-24T08:58:41.831Z,670.3
2023-02-24T08:59:44.355Z,669.8
2023-02-24T09:00:47.245Z,670
2023-02-24T09:02:54.509Z,670
2023-02-24T09:03:56.762Z,670.4
2023-02-24T09:04:59.444Z,670.3
2023-02-24T09:06:01.520Z,670.5
2023-02-24T09:08:08.464Z,670.2
2023-02-24T09:09:10.694Z,670.1
2023-02-24T09:10:13.376Z,670.1
2023-02-24T09:11:16.103Z,670.3
2023-02-24T09:12:18.818Z,670.4
2023-02-24T09:13:21.124Z,670.7
2023-02-24T09:15:28.744Z,671
2023-02-24T09:16:31.450Z,671.4
2023-02-24T09:17:34.033Z,671.1
2023-02-24T09:18:36.314Z,671.5
2023-02-24T09:19:38.843Z,671.9
2023-02-24T09:20:40.858Z,671.5
2023-02-24T09:21:43.395Z,672.2
2023-02-24T09:22:45.922Z,672.2
2023-02-24T09:23:48.476Z,672.4
2023-02-24T09:24:51.166Z,672.5
2023-02-24T09:25:53.444Z,672.8
2023-02-24T09:26:55.975Z,672.3
2023-02-24T09:27:58.734Z,672.6
2023-02-24T09:29:00.995Z,672.6
2023-02-24T09:30:03.231Z,673
2023-02-24T09:31:06.326Z,672.6
2023-02-24T09:32:09.738Z,673
2023-02-24T09:33:13.129Z,672.9
2023-02-24T09:34:15.672Z,673.1
2023-02-24T09:35:17.620Z,673.4
2023-02-24T09:36:20.485Z,673.6
2023-02-24T09:37:22.834Z,673.6
2023-02-24T09:38:25.354Z,674
2023-02-24T09:39:27.862Z,673.9
2023-02-24T09:40:30.370Z,674.3
2023-02-24T09:41:35.646Z,674.5
2023-02-24T09:42:39.317Z,674.8
2023-02-24T09:43:41.886Z,674.8
2023-02-24T09:44:44.390Z,674.8
2023-02-24T09:45:47.517Z,675.1
2023-02-24T09:46:50.338Z,675.1
2023-02-24T09:47:52.645Z,675.2
2023-02-24T09:48:54.876Z,675.6
2023-02-24T09:49:57.046Z,675.8
2023-02-24T09:52:04.626Z,675.8
2023-02-24T09:54:11.578Z,676.1
2023-02-24T09:55:14.232Z,675.9
2023-02-24T09:56:16.636Z,676.2
2023-02-24T09:57:19.565Z,676.3
2023-02-24T09:59:29.533Z,676.5
2023-02-24T10:00:32.117Z,676.5
2023-02-24T10:01:35.042Z,676.9
2023-02-24T10:02:37.975Z,676.8
2023-02-24T10:03:40.505Z,677.1
2023-02-24T10:04:43.046Z,677.5
2023-02-24T10:05:44.999Z,677.1
2023-02-24T10:06:47.215Z,677.5
2023-02-24T10:07:49.749Z,677.6
2023-02-24T10:08:52.037Z,677.5
2023-02-24T10:09:54.275Z,677.5
2023-02-24T10:10:56.785Z,677.5
2023-02-24T10:11:59.016Z,677.8
2023-02-24T10:13:01.618Z,678.1
2023-02-24T10:14:05.732Z,678.6
2023-02-24T10:15:07.949Z,678.6
2023-02-24T10:16:10.493Z,679
2023-02-24T10:17:12.515Z,678.8
2023-02-24T10:18:14.885Z,679
2023-02-24T10:19:17.326Z,678.8
2023-02-24T10:20:19.313Z,679.1
2023-02-24T10:21:23.338Z,679.1
2023-02-24T10:22:25.640Z,679.3
2023-02-24T10:23:28.168Z,679.5
2023-02-24T10:24:30.426Z,679.5
2023-02-24T10:25:32.974Z,679.6
2023-02-24T10:26:35.236Z,679.2
2023-02-24T10:27:37.726Z,679.8
2023-02-24T10:28:40.037Z,679.7
2023-02-24T10:29:41.451Z,679.7
2023-02-24T10:30:44.901Z,679.9
2023-02-24T10:31:48.602Z,680.3
2023-02-24T10:32:51.722Z,680
2023-02-24T10:33:54.451Z,679.8
2023-02-24T10:34:56.954Z,679.7
2023-02-24T10:35:59.498Z,679.5
2023-02-24T10:37:01.529Z,679.7
2023-02-24T10:38:04.092Z,679.9
2023-02-24T10:39:06.081Z,680.2
2023-02-24T10:40:08.648Z,679.8
2023-02-24T10:41:11.211Z,680
2023-02-24T10:42:13.748Z,680.2
2023-02-24T10:43:15.989Z,680.3
2023-02-24T10:44:17.975Z,680.4
2023-02-24T10:45:24.125Z,680.8
2023-02-24T10:47:31.833Z,680.8
2023-02-24T10:49:39.195Z,681.5
2023-02-24T10:51:46.706Z,680.9
2023-02-24T10:52:48.648Z,681.4
2023-02-24T10:53:50.990Z,682.1
2023-02-24T10:54:53.291Z,682.3
2023-02-24T10:55:55.804Z,682.1
2023-02-24T10:56:58.286Z,682.1
2023-02-24T10:58:01.619Z,682.1
2023-02-24T10:59:04.160Z,682.2
2023-02-24T11:00:06.756Z,682.7
2023-02-24T11:01:09.660Z,682.4
2023-02-24T11:02:12.401Z,682.9
2023-02-24T11:04:19.638Z,682.7
2023-02-24T11:05:22.238Z,683.1
2023-02-24T11:06:24.753Z,683
2023-02-24T11:07:26.876Z,683
2023-02-24T11:08:29.111Z,682.9
2023-02-24T11:09:31.697Z,683.5
2023-02-24T11:10:34.623Z,683.2
2023-02-24T11:11:36.834Z,683.6
2023-02-24T11:12:39.404Z,683.6
2023-02-24T11:13:41.919Z,684.3
2023-02-24T11:14:44.169Z,684.5
2023-02-24T11:15:46.956Z,684.7
2023-02-24T11:16:49.496Z,685.1
2023-02-24T11:17:51.843Z,684.8
2023-02-24T11:18:54.450Z,685.7
2023-02-24T11:19:57.025Z,685.6
2023-02-24T11:20:59.672Z,685.8
2023-02-24T11:22:02.204Z,685.8
2023-02-24T11:23:04.741Z,686.1
2023-02-24T11:24:06.993Z,686.6
2023-02-24T11:25:09.256Z,686.2
2023-02-24T11:26:11.286Z,686.7
2023-02-24T11:27:13.011Z,686.7
2023-02-24T11:28:15.237Z,686.7
2023-02-24T11:29:17.739Z,687.3
2023-02-24T11:30:20.536Z,687.6
2023-02-24T11:31:25.989Z,687.5
2023-02-24T11:32:29.552Z,687.6
2023-02-24T11:33:32.133Z,687.9
2023-02-24T11:34:34.682Z,687.7
2023-02-24T11:35:36.921Z,687.8
2023-02-24T11:36:39.357Z,688.3
2023-02-24T11:37:45.014Z,688.2
2023-02-24T11:38:47.577Z,688.7
2023-02-24T11:39:49.827Z,688.8
2023-02-24T11:40:52.089Z,689.3
2023-02-24T11:41:54.189Z,689.5
2023-02-24T11:42:56.137Z,689.4
2023-02-24T11:43:58.655Z,689.6
2023-02-24T11:45:00.926Z,689.6
2023-02-24T11:46:03.704Z,690.1
2023-02-24T11:47:06.230Z,690.3
2023-02-24T11:48:08.749Z,690.7
2023-02-24T11:49:11.299Z,690.5
2023-02-24T11:50:13.557Z,690.7
2023-02-24T11:51:16.063Z,691.2
2023-02-24T11:52:18.788Z,691.5
2023-02-24T11:53:21.056Z,691.2
2023-02-24T11:54:23.291Z,691.4
2023-02-24T11:55:29.205Z,691.5
2023-02-24T11:56:31.733Z,692
2023-02-24T11:57:34.253Z,691.7
2023-02-24T11:58:37.466Z,691.6
2023-02-24T11:59:40.135Z,691.7
2023-02-24T12:00:42.674Z,692
2023-02-24T12:01:44.954Z,691.9
2023-02-24T12:02:47.553Z,692.3
2023-02-24T12:03:49.848Z,692.3
2023-02-24T12:04:52.347Z,692.5
2023-02-24T12:05:55.104Z,692.8
2023-02-24T12:06:57.694Z,692.7
2023-02-24T12:08:00.373Z,692.8
2023-02-24T12:09:02.879Z,693
2023-02-24T12:11:10.492Z,693.4
2023-02-24T12:13:18.029Z,693.6
2023-02-24T12:14:21.369Z,693.8
2023-02-24T12:15:24.448Z,693.9
2023-02-24T12:16:28.729Z,693.9
2023-02-24T12:17:31.324Z,694.1
2023-02-24T12:18:33.987Z,694.9
2023-02-24T12:19:36.504Z,694.4
2023-02-24T12:20:39.018Z,694.4
2023-02-24T12:21:40.952Z,694.7
2023-02-24T12:22:43.457Z,694.7
2023-02-24T12:23:46.129Z,694.5
2023-02-24T12:24:48.677Z,694.6
2023-02-24T12:25:51.237Z,694.7
2023-02-24T12:26:53.754Z,694.7
2023-02-24T12:27:56.031Z,694.9
2023-02-24T12:28:58.598Z,695
2023-02-24T12:30:01.160Z,695.5
2023-02-24T12:31:04.195Z,695.5
2023-02-24T12:32:07.601Z,695.8
2023-02-24T12:33:09.878Z,696.5
2023-02-24T12:34:12.198Z,695.6
2023-02-24T12:35:14.753Z,696.3
2023-02-24T12:36:16.980Z,696.3
2023-02-24T12:37:19.227Z,696.5
2023-02-24T12:38:21.921Z,696.3
2023-02-24T12:39:24.282Z,696.8
2023-02-24T12:40:26.275Z,696.9
2023-02-24T12:41:28.807Z,697.1
2023-02-24T12:42:31.102Z,697
2023-02-24T12:43:33.604Z,697
2023-02-24T12:44:35.567Z,697.1
2023-02-24T12:45:37.825Z,696.9
2023-02-24T12:46:40.344Z,696.7
2023-02-24T12:47:42.861Z,697
2023-02-24T12:48:45.129Z,697.4
2023-02-24T12:49:47.632Z,697.5
2023-02-24T12:50:49.857Z,697.6
2023-02-24T12:51:52.374Z,697.4
2023-02-24T12:52:55.136Z,697.8
2023-02-24T12:53:59.140Z,697.7
2023-02-24T12:55:01.801Z,698.1
2023-02-24T12:56:04.315Z,698.5
2023-02-24T12:57:06.554Z,697.9
2023-02-24T12:58:09.120Z,698.3
2023-02-24T12:59:12.029Z,698.6
2023-02-24T13:00:14.704Z,698.4
2023-02-24T13:01:17.619Z,698.5
2023-02-24T13:02:20.163Z,698.7
2023-02-24T13:03:22.501Z,698.7
2023-02-24T13:04:25.267Z,698.6
2023-02-24T13:05:27.781Z,698.8
2023-02-24T13:06:30.029Z,698.4
2023-02-24T13:07:32.533Z,698.9
2023-02-24T13:08:35.017Z,698.6
2023-02-24T13:09:37.011Z,699.3
2023-02-24T13:10:39.684Z,699.4
2023-02-24T13:11:42.216Z,699.5
2023-02-24T13:12:44.736Z,699.1
2023-02-24T13:13:47.294Z,699.2
2023-02-24T13:14:49.837Z,699.8
2023-02-24T13:15:52.077Z,700.1
2023-02-24T13:16:54.279Z,700.2
2023-02-24T13:19:01.281Z,700.8
2023-02-24T13:20:03.558Z,700.8
2023-02-24T13:21:05.524Z,700.5
2023-02-24T13:22:08.056Z,700.8
2023-02-24T13:23:10.594Z,700.7
2023-02-24T13:24:13.108Z,700.7
2023-02-24T13:25:15.619Z,701
2023-02-24T13:26:18.226Z,701.5
2023-02-24T13:27:20.751Z,701.1
2023-02-24T13:28:23.297Z,701.4
2023-02-24T13:29:24.940Z,701.6
2023-02-24T13:30:27.655Z,701.7
2023-02-24T13:31:30.551Z,701.7
2023-02-24T13:32:33.733Z,702.2
2023-02-24T13:33:36.437Z,702.3
2023-02-24T13:34:38.951Z,702.6
2023-02-24T13:35:41.192Z,702.5
2023-02-24T13:36:43.477Z,702.4
2023-02-24T13:37:45.727Z,702.4
2023-02-24T13:38:48.289Z,702.5
2023-02-24T13:39:51.023Z,702.5
2023-02-24T13:40:52.988Z,702.8
2023-02-24T13:43:01.290Z,703.1
2023-02-24T13:44:03.858Z,703.3
2023-02-24T13:45:06.409Z,702.8